Aviation Digital Data Service (ADDS)

Output produced by METARs form (0358 UTC 27 February 2015)
found at http://aviationweather.gov/adds/metars/
 
KRUT 262320Z 2700/2724 34004KT P6SM SCT080 BKN120 
     FM270500 VRB03KT P6SM SCT050 BKN080 
     FM271200 VRB03KT P6SM SCT100 BKN150 
     FM271800 33005KT P6SM SCT150 SCT250 AMD LTD TO CLD VIS AND WIND